Time;durP1;ratioP1;P1;durP2;ratioP2;P2;SDS_P1;SDS_P2;PMS_P1;PMS_P2;Temp;Humidity;BMP_temperature;BMP_pressure;BME280_temperature;BME280_humidity;BME280_pressure;Samples;Min_cycle;Max_cycle;Signal;HPM_P1;HPM_P2
2021/12/11 00:00:18;;;;;;;10.05;4.63;;;;;;;2.61;100.00;96600.44;4902514;29;20546;-89
2021/12/11 00:03:05;;;;;;;5.10;3.38;;;;;;;2.56;100.00;96597.13;4908166;29;20027;-91
2021/12/11 00:05:32;;;;;;;10.75;3.20;;;;;;;2.50;100.00;96596.53;4902657;29;20507;-89
2021/12/11 00:07:57;;;;;;;13.55;4.45;;;;;;;2.45;100.00;96599.41;4902700;29;20491;-91
2021/12/11 00:10:38;;;;;;;5.50;3.63;;;;;;;2.52;100.00;96602.63;4911412;29;20032;-91
2021/12/11 00:13:08;;;;;;;2.15;1.98;;;;;;;2.45;100.00;96595.91;4896131;29;20488;-91
2021/12/11 00:15:41;;;;;;;2.35;2.15;;;;;;;2.49;100.00;96603.59;4906110;29;20035;-90
2021/12/11 00:18:14;;;;;;;2.30;2.10;;;;;;;2.36;100.00;96604.25;4912981;29;20054;-90
2021/12/11 00:20:49;;;;;;;1.85;1.65;;;;;;;2.32;100.00;96607.94;4903878;29;20028;-89
2021/12/11 00:23:22;;;;;;;9.52;3.13;;;;;;;2.42;100.00;96604.81;4905481;29;20031;-90
2021/12/11 00:25:47;;;;;;;2.42;2.13;;;;;;;2.39;100.00;96594.41;4903093;29;20044;-91
2021/12/11 00:28:13;;;;;;;2.00;1.50;;;;;;;2.44;100.00;96588.91;4903754;29;20107;-89
2021/12/11 00:30:42;;;;;;;2.38;1.98;;;;;;;2.48;100.00;96587.84;4900745;29;20510;-91
2021/12/11 00:33:10;;;;;;;7.13;4.60;;;;;;;2.45;100.00;96580.09;4909892;29;20389;-90
2021/12/11 00:35:37;;;;;;;5.53;4.43;;;;;;;2.49;100.00;96598.31;4929387;29;20451;-91
2021/12/11 00:38:05;;;;;;;15.48;6.78;;;;;;;2.50;100.00;96604.47;4903409;29;20059;-91
2021/12/11 00:40:32;;;;;;;19.55;9.30;;;;;;;2.48;100.00;96612.47;4921856;29;20532;-91
2021/12/11 00:43:03;;;;;;;9.68;4.03;;;;;;;2.39;100.00;96591.78;4903850;29;20032;-91
2021/12/11 00:45:32;;;;;;;4.82;4.43;;;;;;;2.55;100.00;96624.44;4900987;29;20126;-89
2021/12/11 00:48:01;;;;;;;4.32;3.30;;;;;;;2.50;100.00;96623.81;4893841;29;20031;-89
2021/12/11 00:50:32;;;;;;;14.50;5.72;;;;;;;2.56;100.00;96633.22;4906855;29;20036;-89
2021/12/11 00:53:06;;;;;;;3.22;2.75;;;;;;;2.64;100.00;96639.88;4915234;29;20476;-89
2021/12/11 00:55:36;;;;;;;5.38;3.45;;;;;;;2.64;100.00;96637.25;4890051;29;20036;-89
2021/12/11 00:58:13;;;;;;;4.22;3.80;;;;;;;2.72;100.00;96645.66;4910252;29;20064;-89
2021/12/11 01:00:53;;;;;;;10.43;6.80;;;;;;;2.62;100.00;96623.25;4910762;29;20043;-89
2021/12/11 01:03:22;;;;;;;5.95;4.50;;;;;;;2.62;100.00;96617.09;4917843;29;20543;-89
2021/12/11 01:05:52;;;;;;;7.65;3.33;;;;;;;2.70;100.00;96615.00;4910175;29;20113;-90
2021/12/11 01:08:32;;;;;;;7.25;3.67;;;;;;;2.66;100.00;96595.78;4904038;29;20451;-90
2021/12/11 01:11:18;;;;;;;4.88;3.75;;;;;;;2.78;100.00;96606.69;4918024;29;20487;-90
2021/12/11 01:13:47;;;;;;;2.88;1.80;;;;;;;2.90;100.00;96611.41;4917010;29;20096;-89
2021/12/11 01:16:15;;;;;;;2.20;1.88;;;;;;;2.89;100.00;96593.88;4895010;29;20097;-89
2021/12/11 01:18:47;;;;;;;2.00;1.90;;;;;;;2.97;100.00;96597.00;4898280;29;20044;-89
2021/12/11 01:21:30;;;;;;;8.43;2.80;;;;;;;2.96;100.00;96571.50;4920703;29;20032;-90
2021/12/11 01:26:32;;;;;;;0.98;0.95;;;;;;;3.07;100.00;96567.44;4934663;29;20039;-90
2021/12/11 01:28:58;;;;;;;8.55;2.92;;;;;;;3.08;100.00;96573.56;4900330;29;20028;-88
2021/12/11 01:31:24;;;;;;;2.03;1.38;;;;;;;3.06;100.00;96586.00;4904554;29;20038;-90
2021/12/11 01:33:52;;;;;;;2.22;2.00;;;;;;;3.08;100.00;96589.41;4892724;29;20056;-90
2021/12/11 01:36:18;;;;;;;1.67;1.58;;;;;;;3.04;100.00;96577.28;4905039;29;20476;-90
2021/12/11 01:38:44;;;;;;;1.85;1.35;;;;;;;3.02;100.00;96563.28;4901960;29;20044;-89
2021/12/11 01:41:16;;;;;;;1.75;1.65;;;;;;;3.02;100.00;96569.44;4892969;29;20561;-89
2021/12/11 01:43:43;;;;;;;2.30;1.92;;;;;;;3.01;100.00;96575.66;4892192;29;20040;-90
2021/12/11 01:46:10;;;;;;;11.20;2.00;;;;;;;3.03;100.00;96576.44;4901526;29;20059;-89
2021/12/11 01:48:47;;;;;;;8.20;2.03;;;;;;;3.12;100.00;96560.13;4906150;29;20028;-88
2021/12/11 01:51:27;;;;;;;0.82;0.82;;;;;;;3.13;100.00;96561.00;4895071;29;20491;-89
2021/12/11 01:54:03;;;;;;;1.08;0.82;;;;;;;3.11;100.00;96547.00;4903932;29;20043;-91
2021/12/11 01:56:31;;;;;;;1.05;1.05;;;;;;;3.24;100.00;96561.31;4908588;29;20443;-89
2021/12/11 01:59:05;;;;;;;5.22;3.47;;;;;;;3.21;100.00;96564.13;4904875;29;20024;-90
2021/12/11 02:01:35;;;;;;;4.65;4.07;;;;;;;3.19;100.00;96572.13;4905045;29;20077;-89
2021/12/11 02:04:04;;;;;;;2.30;2.13;;;;;;;3.09;100.00;96570.00;4913333;29;20106;-89
2021/12/11 02:06:32;;;;;;;4.90;2.90;;;;;;;2.98;100.00;96551.19;4914313;29;20039;-90
2021/12/11 02:08:58;;;;;;;3.88;2.03;;;;;;;3.09;100.00;96555.00;4903453;29;20020;-90
2021/12/11 02:11:29;;;;;;;2.78;2.40;;;;;;;3.01;100.00;96537.81;4925712;29;20039;-90
2021/12/11 02:13:58;;;;;;;2.28;2.17;;;;;;;3.13;100.00;96550.44;4920896;29;20032;-90
2021/12/11 02:16:37;;;;;;;1.48;1.38;;;;;;;2.99;100.00;96547.59;4929126;29;20036;-90
2021/12/11 02:19:08;;;;;;;3.28;1.98;;;;;;;2.97;100.00;96536.25;4927461;29;20119;-89
2021/12/11 02:21:49;;;;;;;4.03;1.95;;;;;;;2.96;100.00;96550.38;4912010;29;20145;-90
2021/12/11 02:24:19;;;;;;;1.10;1.05;;;;;;;3.02;100.00;96555.34;4895205;29;20036;-90
2021/12/11 02:26:45;;;;;;;1.05;1.05;;;;;;;2.99;100.00;96543.16;4914232;29;20028;-90
2021/12/11 02:29:33;;;;;;;2.60;1.73;;;;;;;2.92;100.00;96538.28;4895907;29;20028;-91
2021/12/11 02:32:11;;;;;;;1.15;1.05;;;;;;;2.96;100.00;96550.38;4926189;29;20039;-91
2021/12/11 02:34:40;;;;;;;0.95;0.95;;;;;;;2.78;100.00;96519.56;4908063;29;20039;-90
2021/12/11 02:37:12;;;;;;;1.00;1.00;;;;;;;2.88;100.00;96544.63;4927248;29;20066;-91
2021/12/11 02:39:50;;;;;;;0.80;0.80;;;;;;;2.71;100.00;96553.31;4928459;29;20407;-89
2021/12/11 02:42:25;;;;;;;1.70;0.68;;;;;;;2.62;100.00;96553.75;4917553;29;20028;-90
2021/12/11 02:45:00;;;;;;;0.50;0.50;;;;;;;2.58;100.00;96557.50;4897117;29;20031;-89
2021/12/11 02:47:32;;;;;;;1.33;1.20;;;;;;;2.54;100.00;96554.13;4916815;29;20028;-89
2021/12/11 02:50:10;;;;;;;1.17;1.02;;;;;;;2.36;100.00;96525.97;4904758;29;20039;-88
2021/12/11 02:52:54;;;;;;;1.05;1.02;;;;;;;2.43;100.00;96548.47;4906665;29;20039;-89
2021/12/11 02:55:19;;;;;;;2.50;1.80;;;;;;;2.49;100.00;96569.28;4892834;29;20189;-90
2021/12/11 02:57:53;;;;;;;1.42;1.33;;;;;;;2.42;100.00;96554.69;4885977;29;20077;-89
2021/12/11 03:00:23;;;;;;;0.95;0.95;;;;;;;2.43;100.00;96553.75;4893405;29;20035;-89
2021/12/11 03:03:01;;;;;;;1.98;1.77;;;;;;;2.43;100.00;96551.13;4905211;29;20032;-90
2021/12/11 03:05:37;;;;;;;1.60;1.50;;;;;;;2.52;100.00;96563.06;4896534;29;20066;-91
2021/12/11 03:08:05;;;;;;;2.25;2.05;;;;;;;2.59;100.00;96559.19;4909288;29;20059;-89
2021/12/11 03:10:32;;;;;;;6.32;1.20;;;;;;;2.60;100.00;96545.94;4919553;29;20578;-89
2021/12/11 03:12:58;;;;;;;3.10;2.03;;;;;;;2.59;100.00;96532.78;4903557;29;20034;-89
2021/12/11 03:15:25;;;;;;;3.97;3.10;;;;;;;2.66;100.00;96544.78;4914888;29;20122;-88
2021/12/11 03:17:50;;;;;;;1.70;1.58;;;;;;;2.65;100.00;96530.72;4927417;29;20040;-89
2021/12/11 03:20:19;;;;;;;1.90;1.52;;;;;;;2.69;100.00;96536.72;4932702;29;20049;-90
2021/12/11 03:22:46;;;;;;;1.83;1.55;;;;;;;2.66;100.00;96521.88;4903565;29;20035;-90
2021/12/11 03:25:16;;;;;;;2.95;2.25;;;;;;;2.72;100.00;96520.72;4890342;29;20064;-90
2021/12/11 03:27:42;;;;;;;1.25;1.15;;;;;;;2.56;100.00;96493.34;4917156;29;20029;-91
2021/12/11 03:30:12;;;;;;;1.60;1.25;;;;;;;2.67;100.00;96520.09;4907630;29;20407;-90
2021/12/11 03:32:38;;;;;;;7.80;3.45;;;;;;;2.78;100.00;96527.50;4906029;29;20043;-91
2021/12/11 03:35:07;;;;;;;5.70;3.78;;;;;;;2.78;100.00;96517.78;4904434;29;20480;-91
2021/12/11 03:37:33;;;;;;;4.47;2.08;;;;;;;2.83;100.00;96515.78;4904731;29;20040;-90
2021/12/11 03:39:59;;;;;;;3.67;2.85;;;;;;;2.92;100.00;96522.44;4909440;29;20032;-90
2021/12/11 03:42:30;;;;;;;5.53;3.70;;;;;;;2.93;100.00;96516.19;4936099;29;20554;-90
2021/12/11 03:44:58;;;;;;;16.17;3.95;;;;;;;2.87;100.00;96504.16;4904316;29;20032;-91
2021/12/11 03:47:31;;;;;;;4.47;3.08;;;;;;;2.92;100.00;96517.16;4923581;29;20410;-90
2021/12/11 03:49:57;;;;;;;3.15;2.85;;;;;;;2.77;100.00;96496.75;4903067;29;20077;-90
2021/12/11 03:52:24;;;;;;;1.95;1.80;;;;;;;2.84;100.00;96506.06;4906839;29;20035;-91
2021/12/11 03:54:52;;;;;;;5.38;3.42;;;;;;;2.75;100.00;96481.00;4904564;29;20028;-91
2021/12/11 03:57:23;;;;;;;1.13;1.13;;;;;;;2.81;100.00;96490.38;4892359;29;20032;-91
2021/12/11 03:59:50;;;;;;;1.23;1.17;;;;;;;2.82;100.00;96486.81;4924686;29;20027;-91
2021/12/11 04:02:19;;;;;;;1.20;1.20;;;;;;;2.82;100.00;96489.47;4924549;29;20028;-90
2021/12/11 04:04:54;;;;;;;1.20;1.10;;;;;;;2.87;100.00;96485.66;4909062;29;20076;-90
2021/12/11 04:07:25;;;;;;;2.85;2.05;;;;;;;2.95;100.00;96472.97;4899230;29;20047;-90
2021/12/11 04:09:51;;;;;;;2.58;2.20;;;;;;;2.79;100.00;96447.38;4913090;29;20040;-90
2021/12/11 04:12:19;;;;;;;2.15;1.65;;;;;;;2.95;100.00;96487.94;4912243;29;20106;-90
2021/12/11 04:14:46;;;;;;;2.15;1.70;;;;;;;2.94;100.00;96494.16;4909910;29;20027;-91
2021/12/11 04:17:18;;;;;;;1.42;1.33;;;;;;;2.86;100.00;96475.19;4911675;29;20032;-90
2021/12/11 04:19:44;;;;;;;4.78;3.78;;;;;;;3.01;100.00;96490.28;4913069;29;20479;-90
2021/12/11 04:22:10;;;;;;;2.22;1.63;;;;;;;2.91;100.00;96459.97;4929335;29;20107;-90
2021/12/11 04:24:38;;;;;;;1.13;1.08;;;;;;;3.20;100.00;96497.22;4912263;29;20122;-89
2021/12/11 04:27:05;;;;;;;2.63;2.35;;;;;;;3.33;100.00;96501.88;4911929;29;20131;-90
2021/12/11 04:29:32;;;;;;;1.77;1.67;;;;;;;3.45;100.00;96509.19;4907268;29;20195;-91
2021/12/11 04:32:01;;;;;;;5.25;3.33;;;;;;;3.47;100.00;96510.84;4926355;29;20414;-90
2021/12/11 04:34:29;;;;;;;2.88;1.65;;;;;;;3.41;100.00;96495.28;4926699;29;20041;-91
2021/12/11 04:37:11;;;;;;;11.70;4.13;;;;;;;3.55;100.00;96502.50;4906010;29;20135;-91
2021/12/11 04:39:38;;;;;;;4.70;3.28;;;;;;;3.75;100.00;96520.84;4908519;29;20499;-91
2021/12/11 04:42:19;;;;;;;10.65;6.97;;;;;;;3.74;100.00;96517.34;4908357;29;20035;-88
2021/12/11 04:44:46;;;;;;;5.70;4.28;;;;;;;3.67;100.00;96484.22;4913050;29;20086;-90
2021/12/11 04:47:30;;;;;;;8.77;5.05;;;;;;;3.78;100.00;96495.09;4903510;29;20027;-89
2021/12/11 04:50:02;;;;;;;3.65;3.30;;;;;;;3.98;100.00;96509.06;4909127;29;20024;-90
2021/12/11 04:52:34;;;;;;;6.03;4.53;;;;;;;3.91;100.00;96500.59;4912022;29;20122;-90
2021/12/11 05:00:43;;;;;;;3.03;2.63;;;;;;;3.74;100.00;96509.41;4930030;29;20043;-90
2021/12/11 05:10:56;;;;;;;1.10;1.00;;;;;;;3.65;100.00;96527.53;4920754;29;20419;-91
2021/12/11 05:13:24;;;;;;;3.78;1.83;;;;;;;3.59;100.00;96528.72;4889609;29;20431;-90
2021/12/11 05:15:54;;;;;;;1.27;1.17;;;;;;;3.63;100.00;96532.06;4924198;29;20066;-90
2021/12/11 05:18:23;;;;;;;9.20;1.92;;;;;;;3.52;100.00;96511.44;4918109;29;20048;-90
2021/12/11 05:20:51;;;;;;;12.23;7.88;;;;;;;3.63;100.00;96532.91;4942921;29;20042;-91
2021/12/11 05:23:17;;;;;;;3.10;2.65;;;;;;;3.64;100.00;96516.09;4958958;29;20465;-90
2021/12/11 05:25:44;;;;;;;1.60;1.50;;;;;;;3.69;100.00;96510.59;4941783;29;20039;-88
2021/12/11 05:28:10;;;;;;;1.20;0.88;;;;;;;3.68;100.00;96501.81;4958497;29;20046;-90
2021/12/11 05:30:40;;;;;;;11.40;2.30;;;;;;;3.73;100.00;96491.84;4959450;29;20054;-90
2021/12/11 05:33:06;;;;;;;1.00;0.93;;;;;;;3.82;100.00;96496.66;4944233;29;20027;-91
2021/12/11 05:35:35;;;;;;;2.40;1.65;;;;;;;3.89;100.00;96491.88;4938868;29;20040;-90
2021/12/11 05:38:02;;;;;;;1.50;1.38;;;;;;;3.86;100.00;96480.63;4942538;29;20518;-90
2021/12/11 05:40:29;;;;;;;3.25;2.50;;;;;;;3.84;100.00;96476.25;4942778;29;20051;-89
2021/12/11 05:42:55;;;;;;;7.93;3.10;;;;;;;3.92;100.00;96488.22;4926821;29;20035;-90
2021/12/11 05:45:21;;;;;;;2.67;2.40;;;;;;;3.92;100.00;96493.50;4928271;29;20027;-91
2021/12/11 05:47:47;;;;;;;3.97;3.25;;;;;;;3.93;100.00;96477.59;4947802;28;20028;-91
2021/12/11 05:50:17;;;;;;;2.58;2.38;;;;;;;3.99;100.00;96479.03;4937821;29;20028;-90
2021/12/11 05:52:44;;;;;;;2.72;2.45;;;;;;;4.07;100.00;96498.00;4955597;28;20035;-91
2021/12/11 05:55:14;;;;;;;4.80;2.63;;;;;;;4.12;100.00;96501.28;4960061;29;20102;-90
2021/12/11 05:57:41;;;;;;;15.13;9.70;;;;;;;4.11;100.00;96507.47;4944961;29;20031;-90
2021/12/11 06:00:10;;;;;;;3.42;3.13;;;;;;;4.04;100.00;96511.38;4947567;29;20031;-90
2021/12/11 06:02:37;;;;;;;11.40;5.97;;;;;;;4.11;100.00;96518.06;4947065;29;20023;-90
2021/12/11 06:05:03;;;;;;;2.08;1.90;;;;;;;4.14;100.00;96499.38;4963724;29;20023;-90
2021/12/11 06:07:30;;;;;;;3.30;2.95;;;;;;;4.16;100.00;96492.22;4946833;29;20042;-90
2021/12/11 06:10:04;;;;;;;2.05;1.90;;;;;;;3.88;100.00;96428.53;4939473;29;20027;-88
2021/12/11 06:12:30;;;;;;;11.00;4.32;;;;;;;4.31;100.00;96513.41;4936176;29;20031;-91
2021/12/11 06:14:56;;;;;;;6.57;4.50;;;;;;;4.27;100.00;96501.31;4932129;29;20051;-89
2021/12/11 06:17:27;;;;;;;8.50;4.97;;;;;;;4.43;100.00;96525.13;4930414;29;20063;-89
2021/12/11 06:19:55;;;;;;;4.63;3.63;;;;;;;4.39;100.00;96534.19;4956407;29;20054;-91
2021/12/11 06:22:30;;;;;;;4.28;2.88;;;;;;;4.52;100.00;96537.88;4948709;29;20270;-91
2021/12/11 06:24:57;;;;;;;7.25;4.82;;;;;;;4.42;100.00;96499.59;4964160;29;20042;-87
2021/12/11 06:27:24;;;;;;;5.65;4.28;;;;;;;4.60;100.00;96535.66;4932174;29;20059;-90
2021/12/11 06:29:50;;;;;;;3.88;3.15;;;;;;;4.72;100.00;96528.84;4961992;29;20415;-91
2021/12/11 06:32:15;;;;;;;14.95;4.82;;;;;;;4.80;100.00;96526.59;4929784;29;20099;-90
2021/12/11 06:34:41;;;;;;;12.15;6.70;;;;;;;4.88;100.00;96519.09;4937529;29;20031;-91
2021/12/11 06:37:08;;;;;;;9.60;4.38;;;;;;;5.00;100.00;96530.81;4955931;29;20027;-91
2021/12/11 06:39:34;;;;;;;7.20;5.32;;;;;;;5.11;100.00;96537.19;4930679;29;20036;-90
2021/12/11 06:42:02;;;;;;;9.88;6.80;;;;;;;5.15;100.00;96529.94;4928080;29;20046;-91
2021/12/11 06:44:28;;;;;;;10.35;8.43;;;;;;;5.23;100.00;96525.91;4932840;29;20036;-91
2021/12/11 06:47:00;;;;;;;12.73;7.85;;;;;;;5.34;100.00;96522.63;4944464;29;20040;-92
2021/12/11 06:49:31;;;;;;;11.60;9.07;;;;;;;5.60;100.00;96531.75;4945078;29;20581;-92
2021/12/11 06:51:57;;;;;;;11.93;7.60;;;;;;;5.74;100.00;96540.59;4943951;29;20414;-91
2021/12/11 06:54:24;;;;;;;11.00;8.23;;;;;;;5.77;100.00;96526.28;4938608;29;20035;-90
2021/12/11 06:56:50;;;;;;;14.88;8.82;;;;;;;6.02;100.00;96531.00;4938469;29;20038;-91
2021/12/11 06:59:16;;;;;;;25.15;8.80;;;;;;;6.24;100.00;96539.38;4951243;29;20398;-91
2021/12/11 07:01:42;;;;;;;8.52;7.28;;;;;;;6.38;100.00;96542.03;4957738;29;20031;-91
2021/12/11 07:04:09;;;;;;;15.23;5.50;;;;;;;6.48;100.00;96544.03;4939461;29;20122;-88
2021/12/11 07:06:40;;;;;;;9.13;5.18;;;;;;;6.73;100.00;96561.13;4947761;29;20062;-90
2021/12/11 07:09:07;;;;;;;10.60;7.15;;;;;;;6.72;100.00;96554.94;4933555;29;20517;-87
2021/12/11 07:11:34;;;;;;;7.60;5.85;;;;;;;6.90;100.00;96545.81;4947959;29;20036;-91
2021/12/11 07:13:59;;;;;;;12.13;8.40;;;;;;;6.96;100.00;96547.22;4938776;29;20066;-87
2021/12/11 07:16:25;;;;;;;21.27;10.45;;;;;;;7.07;100.00;96545.56;4936458;29;20035;-85
2021/12/11 07:18:51;;;;;;;13.32;8.02;;;;;;;7.31;100.00;96547.63;4936708;28;20115;-89
2021/12/11 07:21:17;;;;;;;12.48;7.70;;;;;;;7.35;100.00;96549.13;4942430;29;20043;-90
2021/12/11 07:23:48;;;;;;;14.30;6.90;;;;;;;7.45;100.00;96544.91;4935050;29;20031;-90
2021/12/11 07:26:18;;;;;;;21.35;10.63;;;;;;;7.31;100.00;96552.94;4953731;28;20090;-89
2021/12/11 07:28:50;;;;;;;38.42;19.77;;;;;;;7.38;98.75;96538.28;4929980;29;20038;-90
2021/12/11 07:31:16;;;;;;;26.40;14.98;;;;;;;7.68;96.12;96546.91;4968444;28;20031;-91
2021/12/11 07:33:42;;;;;;;31.08;14.38;;;;;;;7.93;94.65;96546.97;4932540;29;21503;-82
2021/12/11 07:36:14;;;;;;;29.20;13.18;;;;;;;7.90;95.07;96541.00;4923648;29;20118;-88
2021/12/11 07:38:41;;;;;;;22.23;11.95;;;;;;;7.91;92.32;96540.88;4959502;28;20035;-92
2021/12/11 07:41:11;;;;;;;11.93;8.35;;;;;;;8.00;93.80;96542.91;4946153;28;20040;-90
2021/12/11 07:43:38;;;;;;;33.95;11.07;;;;;;;8.12;95.71;96544.75;4956534;29;20035;-92
2021/12/11 07:46:05;;;;;;;17.45;10.30;;;;;;;8.17;95.95;96569.28;4938583;29;20070;-90
2021/12/11 07:48:30;;;;;;;17.27;8.95;;;;;;;8.22;96.00;96536.13;4924981;29;20031;-90
2021/12/11 07:50:57;;;;;;;16.25;8.10;;;;;;;8.31;93.84;96530.19;4938425;29;20024;-90
2021/12/11 07:53:23;;;;;;;13.00;8.07;;;;;;;8.69;92.64;96563.03;4941078;29;20031;-90
2021/12/11 07:55:50;;;;;;;21.80;9.60;;;;;;;8.77;91.46;96566.00;4959212;28;20027;-91
2021/12/11 07:58:16;;;;;;;15.80;7.68;;;;;;;8.70;92.83;96556.75;4929347;29;20031;-91
2021/12/11 08:00:43;;;;;;;13.63;5.80;;;;;;;9.00;91.60;96567.91;4950338;29;20041;-91
2021/12/11 08:03:11;;;;;;;8.27;5.32;;;;;;;9.15;89.92;96534.78;4933394;29;20031;-91
2021/12/11 08:05:41;;;;;;;8.60;4.80;;;;;;;9.43;86.37;96540.78;4914314;29;20035;-90
2021/12/11 08:08:09;;;;;;;8.27;6.38;;;;;;;9.60;85.68;96551.03;4935625;29;20051;-91
2021/12/11 08:10:36;;;;;;;15.13;9.82;;;;;;;9.79;84.40;96549.56;4943719;29;20130;-92
2021/12/11 08:13:04;;;;;;;14.07;9.50;;;;;;;10.30;82.10;96552.81;4951692;29;20039;-85
2021/12/11 08:15:30;;;;;;;11.20;6.32;;;;;;;10.97;79.69;96550.22;4934646;29;20035;-86
2021/12/11 08:17:56;;;;;;;13.57;8.27;;;;;;;11.85;76.47;96564.44;4944434;29;20420;-84
2021/12/11 08:20:25;;;;;;;28.67;14.93;;;;;;;12.69;77.06;96564.41;4936555;29;20028;-92
2021/12/11 08:22:52;;;;;;;37.50;11.70;;;;;;;13.46;67.43;96565.66;4938608;29;20036;-92
2021/12/11 08:25:19;;;;;;;12.63;8.70;;;;;;;14.17;63.13;96565.47;4941632;29;20081;-92
2021/12/11 08:27:45;;;;;;;8.85;6.80;;;;;;;14.73;61.85;96557.53;4939789;29;20030;-91
2021/12/11 08:30:11;;;;;;;16.27;8.73;;;;;;;15.04;57.00;96546.38;4938220;29;20032;-91
2021/12/11 08:32:37;;;;;;;13.20;7.47;;;;;;;15.14;58.69;96536.44;4938730;29;20487;-94
2021/12/11 08:35:09;;;;;;;10.77;8.18;;;;;;;14.94;58.81;96544.72;4938364;29;20058;-92
2021/12/11 08:37:36;;;;;;;18.42;9.50;;;;;;;14.02;59.98;96547.09;4941260;29;20125;-92
2021/12/11 08:40:06;;;;;;;24.17;8.50;;;;;;;14.04;58.45;96539.72;4930748;29;20040;-92
2021/12/11 08:42:32;;;;;;;14.13;8.25;;;;;;;14.07;57.69;96533.19;4932050;29;20037;-91
2021/12/11 08:45:05;;;;;;;13.02;6.53;;;;;;;14.00;55.46;96538.28;4947654;29;20055;-83
2021/12/11 08:47:31;;;;;;;;;;;;;;;14.43;54.63;96537.88;4951209;28;20033;-83
2021/12/11 08:49:57;;;;;;;11.57;6.57;;;;;;;15.38;53.49;96525.13;4960361;28;20005;-90
2021/12/11 08:52:31;;;;;;;3.65;2.75;;;;;;;16.08;48.29;96507.41;4929855;29;20418;-89
2021/12/11 08:54:57;;;;;;;5.88;3.03;;;;;;;16.19;47.91;96512.53;4935612;29;20027;-89
2021/12/11 08:57:27;;;;;;;5.47;2.78;;;;;;;15.35;50.11;96522.72;4931320;29;20110;-90
2021/12/11 08:59:56;;;;;;;3.40;2.60;;;;;;;15.34;52.23;96521.03;4920661;29;20033;-91
2021/12/11 09:02:45;;;;;;;2.60;1.75;;;;;;;14.70;50.24;96528.22;4936485;29;20027;-90
2021/12/11 09:05:20;;;;;;;2.38;1.40;;;;;;;14.63;52.27;96542.25;4931589;29;20059;-90
2021/12/11 09:07:50;;;;;;;0.63;0.63;;;;;;;14.40;50.33;96505.88;4939885;29;20057;-90
2021/12/11 09:10:26;;;;;;;0.73;0.63;;;;;;;14.90;50.64;96503.78;4941246;29;20024;-89
2021/12/11 09:13:08;;;;;;;1.35;1.25;;;;;;;15.24;50.04;96497.81;4914811;29;20031;-90
2021/12/11 09:15:43;;;;;;;1.73;1.58;;;;;;;15.20;51.83;96525.06;4931449;29;20019;-91
2021/12/11 09:18:26;;;;;;;1.05;0.95;;;;;;;14.90;51.12;96522.63;4937030;29;20065;-91
2021/12/11 09:21:04;;;;;;;1.85;1.50;;;;;;;14.41;53.49;96509.44;4924983;29;20031;-92
2021/12/11 09:23:47;;;;;;;0.65;0.55;;;;;;;14.37;52.98;96506.19;4923556;29;20036;-91
2021/12/11 09:26:20;;;;;;;0.57;0.55;;;;;;;13.91;53.59;96506.88;4927677;29;20385;-88
2021/12/11 09:29:18;;;;;;;0.65;0.65;;;;;;;14.27;54.95;96517.94;4946108;29;20471;-90
2021/12/11 09:32:12;;;;;;;2.20;2.00;;;;;;;15.18;54.36;96510.06;4936086;29;20079;-91
2021/12/11 09:34:42;;;;;;;2.78;1.48;;;;;;;14.74;52.59;96506.25;4938358;29;20031;-89
2021/12/11 09:37:10;;;;;;;1.92;1.70;;;;;;;15.04;52.30;96497.09;4948176;29;20058;-90
2021/12/11 09:39:48;;;;;;;3.17;1.88;;;;;;;15.34;51.77;96488.72;4926807;29;20039;-91
2021/12/11 09:42:16;;;;;;;3.60;2.40;;;;;;;15.45;52.38;96499.28;4950454;29;20042;-91
2021/12/11 09:44:54;;;;;;;2.95;1.70;;;;;;;15.07;52.62;96511.06;4945797;28;20035;-91
2021/12/11 09:47:35;;;;;;;3.15;1.50;;;;;;;14.42;53.63;96508.44;4917706;29;20036;-90
2021/12/11 09:50:09;;;;;;;2.75;1.30;;;;;;;14.26;54.49;96506.31;4938845;29;20023;-91
2021/12/11 09:52:35;;;;;;;3.63;1.00;;;;;;;14.20;54.67;96503.34;4924511;29;20535;-90
2021/12/11 09:55:21;;;;;;;1.50;1.40;;;;;;;13.71;55.62;96523.13;4940230;29;20066;-91
2021/12/11 09:57:52;;;;;;;2.03;1.80;;;;;;;13.35;54.91;96509.31;4937125;29;20035;-91
2021/12/11 10:00:32;;;;;;;1.10;1.00;;;;;;;12.47;56.97;96505.53;4930652;29;20043;-93
2021/12/11 10:02:58;;;;;;;1.45;1.05;;;;;;;12.40;58.10;96507.03;4950775;28;20042;-91
2021/12/11 10:05:30;;;;;;;0.60;0.60;;;;;;;12.77;59.34;96492.13;4970181;28;20034;-91
2021/12/11 10:08:24;;;;;;;;;;;;;;;13.37;58.14;96499.31;4938014;29;20023;-92
2021/12/11 10:10:46;;;;;;;2.92;1.02;;;;;;;13.73;55.90;96486.22;4953382;28;20374;-92
2021/12/11 10:13:12;;;;;;;1.25;1.15;;;;;;;13.69;55.62;96468.69;4937137;29;20133;-91
2021/12/11 10:15:40;;;;;;;1.52;1.30;;;;;;;13.23;57.31;96488.09;4947268;28;20125;-91
2021/12/11 10:18:20;;;;;;;1.10;1.10;;;;;;;12.86;58.98;96499.38;4924615;29;20047;-91
2021/12/11 10:21:04;;;;;;;2.00;1.17;;;;;;;13.67;55.51;96497.53;4931025;29;20385;-90
2021/12/11 10:23:33;;;;;;;0.90;0.90;;;;;;;14.53;53.69;96486.75;4936419;29;20031;-91
2021/12/11 10:26:02;;;;;;;1.73;1.10;;;;;;;14.73;53.47;96476.78;4941592;28;20032;-91
2021/12/11 10:28:30;;;;;;;1.15;1.00;;;;;;;14.77;53.47;96462.03;4933355;29;20027;-91
2021/12/11 10:31:15;;;;;;;2.28;1.23;;;;;;;14.32;53.33;96473.47;4955209;28;20038;-91
2021/12/11 10:33:41;;;;;;;2.55;1.70;;;;;;;14.78;52.75;96463.72;4927204;29;20547;-92
2021/12/11 10:36:12;;;;;;;1.67;1.05;;;;;;;14.71;53.63;96473.38;4945519;29;20043;-92
2021/12/11 10:38:39;;;;;;;6.90;5.10;;;;;;;13.70;54.73;96467.69;4917802;29;20040;-90
2021/12/11 10:41:07;;;;;;;6.38;2.65;;;;;;;13.15;57.26;96472.69;4925038;29;20066;-91
2021/12/11 10:43:47;;;;;;;1.55;1.00;;;;;;;13.27;57.76;96490.38;4947199;28;20035;-90
2021/12/11 10:46:14;;;;;;;8.02;3.95;;;;;;;13.18;57.79;96476.91;4933393;29;20031;-91
2021/12/11 10:48:42;;;;;;;1.58;1.15;;;;;;;13.24;58.99;96485.28;4932512;29;20041;-91
2021/12/11 10:51:11;;;;;;;0.82;0.60;;;;;;;14.48;54.37;96462.97;4951237;28;20043;-91
2021/12/11 10:53:40;;;;;;;2.70;1.83;;;;;;;15.49;51.75;96460.28;4935040;29;20069;-91
2021/12/11 10:56:07;;;;;;;1.02;0.85;;;;;;;16.25;49.53;96445.31;4949902;28;20031;-92
2021/12/11 10:58:37;;;;;;;2.03;1.77;;;;;;;15.94;49.30;96435.09;4944957;29;20063;-90
2021/12/11 11:01:16;;;;;;;1.85;1.17;;;;;;;14.68;52.38;96452.13;4943136;29;20035;-88
2021/12/11 11:03:49;;;;;;;2.67;1.60;;;;;;;14.21;54.14;96470.94;4935381;29;20031;-89
2021/12/11 11:06:15;;;;;;;0.75;0.75;;;;;;;13.51;57.26;96442.50;4929777;29;20032;-90
2021/12/11 11:08:41;;;;;;;3.58;1.27;;;;;;;12.83;59.00;96445.13;4949477;28;20033;-91
2021/12/11 11:11:13;;;;;;;2.15;1.20;;;;;;;11.98;60.78;96433.81;4946850;29;20087;-90
2021/12/11 11:13:40;;;;;;;0.63;0.63;;;;;;;11.90;63.71;96458.59;4938129;29;20041;-91
2021/12/11 11:16:06;;;;;;;4.63;2.72;;;;;;;11.72;65.37;96452.09;4933577;29;20031;-90
2021/12/11 11:18:32;;;;;;;1.95;1.23;;;;;;;11.65;65.19;96450.06;4950823;29;20050;-90
2021/12/11 11:21:07;;;;;;;2.15;1.38;;;;;;;11.50;66.44;96448.66;4933917;29;20034;-83
2021/12/11 11:23:33;;;;;;;1.05;1.00;;;;;;;11.57;67.98;96450.69;4941510;28;20044;-91
2021/12/11 11:26:02;;;;;;;2.20;1.90;;;;;;;11.64;68.61;96440.31;4937366;29;20042;-92
2021/12/11 11:28:31;;;;;;;1.65;1.23;;;;;;;11.35;70.51;96408.78;4936909;29;20056;-92
2021/12/11 11:31:00;;;;;;;0.70;0.70;;;;;;;10.97;72.89;96429.81;4950747;29;20035;-91
2021/12/11 11:33:27;;;;;;;0.82;0.82;;;;;;;10.93;72.10;96428.38;4944839;29;20041;-91
2021/12/11 11:35:53;;;;;;;1.20;1.10;;;;;;;10.68;74.67;96416.13;4950324;29;20031;-91
2021/12/11 11:38:27;;;;;;;1.38;1.15;;;;;;;10.59;76.72;96424.03;4939702;29;20035;-91
2021/12/11 11:40:57;;;;;;;1.65;1.52;;;;;;;10.67;76.29;96401.06;4941104;29;20478;-91
2021/12/11 11:43:24;;;;;;;0.95;0.93;;;;;;;10.57;74.88;96407.28;4933716;29;20077;-91
2021/12/11 11:45:52;;;;;;;1.85;1.45;;;;;;;10.80;75.77;96411.59;4944045;29;20038;-91
2021/12/11 11:48:21;;;;;;;0.88;0.88;;;;;;;10.57;74.43;96399.25;4937429;29;20416;-90
2021/12/11 11:50:48;;;;;;;4.38;2.05;;;;;;;10.37;76.94;96408.84;4946276;29;20130;-90
2021/12/11 11:53:14;;;;;;;2.63;2.15;;;;;;;10.16;77.46;96398.03;4931323;29;20116;-89
2021/12/11 11:55:51;;;;;;;3.65;2.33;;;;;;;10.01;79.04;96385.00;4936449;29;20118;-90
2021/12/11 11:58:17;;;;;;;35.90;4.55;;;;;;;10.23;80.80;96411.78;4948459;29;20094;-90
2021/12/11 12:00:53;;;;;;;5.00;2.28;;;;;;;10.23;79.44;96401.94;4938794;29;20023;-90